Terminal Aerodrome Forecast
Issued by NWS

Home | Current Version | Previous Version | Text Only | Print | Product List | Glossary On
Versions: 1 2 3 4 5 6 7 8 9 10 11 12 13 14 15 16 17 18 19 20 21 22 23 24 25 26 27 28 29 30 31 32 33 34
000
FTUS44 KFWD 280112 AAA
TAFAFW
TAF AMD
KAFW 280112Z 2801/2824 08009KT 6SM -FZDZSN BR FEW009 OVC015
      TEMPO 2801/2803 3SM -SN BR BKN010
     FM280500 05009KT 2SM -FZDZ BR OVC008
      TEMPO 2811/2815 3/4SM BR OVC004
     FM282000 02007KT 3SM -DZ BR OVC006=

USA.gov is the U.S. government's official web portal to all federal, state and local government web resources and services.